Corral, Idaho
Current Conditions -  °F | °C
As of 3:35 AM on Sunday 26 Oct 2014 (Local Time) from KSUN Reporting Station
Clear Clear  
Wind Chill: 43°   Ceiling: Unl
Heat Index: 46°   Visibility: 10mi
Dew Point: 30°   Wind: 7mph
Humidity: 53%   Direction: 220°SW
Pressure: 29.95"   Gusts: NA
Location:  43.34°N, 114.95°W
Report Text: KSUN 260935Z AUTO 22006KT 10SM CLR 08/M01 A2995 RMK AO2 LTG DSNT E
Loading
Personal Weather Stations






























Interactive Weather Map
Tropical Storm Tracking
New forecast layout! Learn more

10-Day Weather Forecast

Advertisements
Track Severe Weather on mobile